sensor_id;sensor_type;location;lat;lon;timestamp;P1;durP1;ratioP1;P2;durP2;ratioP2
59189;SDS011;50749;51.636;4.948;2022-08-18T00:00:48;4.28;;;3.72;;
59189;SDS011;50749;51.636;4.948;2022-08-18T00:03:15;4.97;;;3.63;;
59189;SDS011;50749;51.636;4.948;2022-08-18T00:05:43;4.38;;;3.42;;
59189;SDS011;50749;51.636;4.948;2022-08-18T00:08:09;3.83;;;3.42;;
59189;SDS011;50749;51.636;4.948;2022-08-18T00:10:35;3.53;;;3.20;;
59189;SDS011;50749;51.636;4.948;2022-08-18T00:13:01;4.75;;;3.47;;
59189;SDS011;50749;51.636;4.948;2022-08-18T00:15:27;5.70;;;3.35;;
59189;SDS011;50749;51.636;4.948;2022-08-18T00:17:52;4.80;;;3.20;;
59189;SDS011;50749;51.636;4.948;2022-08-18T00:20:19;3.65;;;3.22;;
59189;SDS011;50749;51.636;4.948;2022-08-18T00:22:47;3.55;;;2.97;;
59189;SDS011;50749;51.636;4.948;2022-08-18T00:25:15;4.35;;;3.30;;
59189;SDS011;50749;51.636;4.948;2022-08-18T00:27:42;3.92;;;3.50;;
59189;SDS011;50749;51.636;4.948;2022-08-18T00:30:09;4.82;;;3.33;;
59189;SDS011;50749;51.636;4.948;2022-08-18T00:32:40;3.17;;;2.88;;
59189;SDS011;50749;51.636;4.948;2022-08-18T00:37:39;3.90;;;3.28;;
59189;SDS011;50749;51.636;4.948;2022-08-18T00:40:06;3.50;;;2.88;;
59189;SDS011;50749;51.636;4.948;2022-08-18T00:42:38;3.92;;;3.40;;
59189;SDS011;50749;51.636;4.948;2022-08-18T00:45:08;4.18;;;2.95;;
59189;SDS011;50749;51.636;4.948;2022-08-18T00:47:37;3.75;;;3.10;;
59189;SDS011;50749;51.636;4.948;2022-08-18T00:50:02;3.20;;;2.70;;
59189;SDS011;50749;51.636;4.948;2022-08-18T00:52:29;3.38;;;3.00;;
59189;SDS011;50749;51.636;4.948;2022-08-18T00:54:55;3.88;;;2.90;;
59189;SDS011;50749;51.636;4.948;2022-08-18T00:57:21;3.78;;;3.00;;
59189;SDS011;50749;51.636;4.948;2022-08-18T00:59:50;4.88;;;3.45;;
59189;SDS011;50749;51.636;4.948;2022-08-18T01:02:33;3.15;;;2.85;;
59189;SDS011;50749;51.636;4.948;2022-08-18T01:05:06;4.43;;;3.08;;
59189;SDS011;50749;51.636;4.948;2022-08-18T01:07:35;3.63;;;3.28;;
59189;SDS011;50749;51.636;4.948;2022-08-18T01:10:05;3.33;;;2.75;;
59189;SDS011;50749;51.636;4.948;2022-08-18T01:12:31;4.80;;;3.05;;
59189;SDS011;50749;51.636;4.948;2022-08-18T01:14:57;3.58;;;3.17;;
59189;SDS011;50749;51.636;4.948;2022-08-18T01:17:24;3.88;;;2.80;;
59189;SDS011;50749;51.636;4.948;2022-08-18T01:20:12;3.65;;;2.88;;
59189;SDS011;50749;51.636;4.948;2022-08-18T01:23:03;3.80;;;3.20;;
59189;SDS011;50749;51.636;4.948;2022-08-18T01:25:42;3.40;;;2.97;;
59189;SDS011;50749;51.636;4.948;2022-08-18T01:28:29;4.43;;;3.00;;
59189;SDS011;50749;51.636;4.948;2022-08-18T01:30:58;3.83;;;3.47;;
59189;SDS011;50749;51.636;4.948;2022-08-18T01:33:25;4.03;;;2.97;;
59189;SDS011;50749;51.636;4.948;2022-08-18T01:35:57;3.50;;;2.92;;
59189;SDS011;50749;51.636;4.948;2022-08-18T01:38:25;3.75;;;2.85;;
59189;SDS011;50749;51.636;4.948;2022-08-18T01:40:51;4.18;;;2.80;;
59189;SDS011;50749;51.636;4.948;2022-08-18T01:43:19;3.08;;;2.53;;
59189;SDS011;50749;51.636;4.948;2022-08-18T01:45:45;3.65;;;2.83;;
59189;SDS011;50749;51.636;4.948;2022-08-18T01:48:12;3.20;;;2.67;;
59189;SDS011;50749;51.636;4.948;2022-08-18T01:50:38;3.38;;;2.80;;
59189;SDS011;50749;51.636;4.948;2022-08-18T01:53:06;3.13;;;2.83;;
59189;SDS011;50749;51.636;4.948;2022-08-18T01:55:33;3.50;;;2.70;;
59189;SDS011;50749;51.636;4.948;2022-08-18T01:58:00;3.88;;;3.00;;
59189;SDS011;50749;51.636;4.948;2022-08-18T02:00:26;3.38;;;2.60;;
59189;SDS011;50749;51.636;4.948;2022-08-18T02:02:53;3.47;;;2.80;;
59189;SDS011;50749;51.636;4.948;2022-08-18T02:05:21;2.85;;;2.47;;
59189;SDS011;50749;51.636;4.948;2022-08-18T02:07:58;3.90;;;2.55;;
59189;SDS011;50749;51.636;4.948;2022-08-18T02:10:24;5.72;;;3.00;;
59189;SDS011;50749;51.636;4.948;2022-08-18T02:12:51;4.00;;;2.80;;
59189;SDS011;50749;51.636;4.948;2022-08-18T02:15:17;3.88;;;2.60;;
59189;SDS011;50749;51.636;4.948;2022-08-18T02:17:43;3.10;;;2.63;;
59189;SDS011;50749;51.636;4.948;2022-08-18T02:20:11;3.17;;;2.78;;
59189;SDS011;50749;51.636;4.948;2022-08-18T02:22:39;2.90;;;2.60;;
59189;SDS011;50749;51.636;4.948;2022-08-18T02:25:06;4.15;;;2.90;;
59189;SDS011;50749;51.636;4.948;2022-08-18T02:27:33;3.28;;;2.72;;
59189;SDS011;50749;51.636;4.948;2022-08-18T02:29:59;2.80;;;2.50;;
59189;SDS011;50749;51.636;4.948;2022-08-18T02:32:26;3.50;;;2.80;;
59189;SDS011;50749;51.636;4.948;2022-08-18T02:34:53;3.30;;;2.70;;
59189;SDS011;50749;51.636;4.948;2022-08-18T02:37:19;3.05;;;2.65;;
59189;SDS011;50749;51.636;4.948;2022-08-18T02:39:45;4.07;;;2.50;;
59189;SDS011;50749;51.636;4.948;2022-08-18T02:42:11;2.80;;;2.47;;
59189;SDS011;50749;51.636;4.948;2022-08-18T02:44:39;4.50;;;2.92;;
59189;SDS011;50749;51.636;4.948;2022-08-18T02:47:04;3.05;;;2.65;;
59189;SDS011;50749;51.636;4.948;2022-08-18T02:49:30;2.53;;;2.25;;
59189;SDS011;50749;51.636;4.948;2022-08-18T02:51:56;3.60;;;2.95;;
59189;SDS011;50749;51.636;4.948;2022-08-18T02:54:23;3.70;;;2.63;;
59189;SDS011;50749;51.636;4.948;2022-08-18T02:56:50;2.92;;;2.40;;
59189;SDS011;50749;51.636;4.948;2022-08-18T02:59:17;3.20;;;2.38;;
59189;SDS011;50749;51.636;4.948;2022-08-18T03:01:49;2.80;;;2.50;;
59189;SDS011;50749;51.636;4.948;2022-08-18T03:04:21;2.50;;;2.22;;
59189;SDS011;50749;51.636;4.948;2022-08-18T03:06:52;3.33;;;3.03;;
59189;SDS011;50749;51.636;4.948;2022-08-18T03:09:19;2.63;;;2.38;;
59189;SDS011;50749;51.636;4.948;2022-08-18T03:11:45;2.97;;;2.38;;
59189;SDS011;50749;51.636;4.948;2022-08-18T03:14:11;3.75;;;2.40;;
59189;SDS011;50749;51.636;4.948;2022-08-18T03:16:39;3.00;;;2.50;;
59189;SDS011;50749;51.636;4.948;2022-08-18T03:19:06;2.80;;;2.30;;
59189;SDS011;50749;51.636;4.948;2022-08-18T03:21:32;2.35;;;2.15;;
59189;SDS011;50749;51.636;4.948;2022-08-18T03:23:59;3.22;;;2.50;;
59189;SDS011;50749;51.636;4.948;2022-08-18T03:26:25;2.63;;;2.38;;
59189;SDS011;50749;51.636;4.948;2022-08-18T03:28:53;2.72;;;2.25;;
59189;SDS011;50749;51.636;4.948;2022-08-18T03:31:19;3.40;;;2.38;;
59189;SDS011;50749;51.636;4.948;2022-08-18T03:33:48;3.10;;;2.30;;
59189;SDS011;50749;51.636;4.948;2022-08-18T03:36:17;2.83;;;2.10;;
59189;SDS011;50749;51.636;4.948;2022-08-18T03:38:47;3.80;;;2.47;;
59189;SDS011;50749;51.636;4.948;2022-08-18T03:41:15;2.60;;;2.22;;
59189;SDS011;50749;51.636;4.948;2022-08-18T03:43:43;3.80;;;2.47;;
59189;SDS011;50749;51.636;4.948;2022-08-18T03:46:10;2.47;;;2.20;;
59189;SDS011;50749;51.636;4.948;2022-08-18T03:48:39;3.05;;;2.40;;
59189;SDS011;50749;51.636;4.948;2022-08-18T03:51:12;2.88;;;2.38;;
59189;SDS011;50749;51.636;4.948;2022-08-18T03:53:40;2.70;;;2.17;;
59189;SDS011;50749;51.636;4.948;2022-08-18T03:56:07;2.67;;;2.47;;
59189;SDS011;50749;51.636;4.948;2022-08-18T03:58:41;3.50;;;2.67;;
59189;SDS011;50749;51.636;4.948;2022-08-18T04:01:13;4.05;;;2.72;;
59189;SDS011;50749;51.636;4.948;2022-08-18T04:03:41;3.28;;;2.47;;
59189;SDS011;50749;51.636;4.948;2022-08-18T04:06:08;2.83;;;2.38;;
59189;SDS011;50749;51.636;4.948;2022-08-18T04:08:39;3.03;;;2.72;;
59189;SDS011;50749;51.636;4.948;2022-08-18T04:11:05;2.80;;;2.40;;
59189;SDS011;50749;51.636;4.948;2022-08-18T04:13:31;2.55;;;2.17;;
59189;SDS011;50749;51.636;4.948;2022-08-18T04:16:00;2.83;;;2.35;;
59189;SDS011;50749;51.636;4.948;2022-08-18T04:18:26;2.90;;;2.40;;
59189;SDS011;50749;51.636;4.948;2022-08-18T04:20:52;2.70;;;2.30;;
59189;SDS011;50749;51.636;4.948;2022-08-18T04:23:19;2.65;;;2.20;;
59189;SDS011;50749;51.636;4.948;2022-08-18T04:25:54;2.75;;;2.10;;
59189;SDS011;50749;51.636;4.948;2022-08-18T04:28:23;2.38;;;2.13;;
59189;SDS011;50749;51.636;4.948;2022-08-18T04:30:49;2.90;;;2.50;;
59189;SDS011;50749;51.636;4.948;2022-08-18T04:33:15;3.05;;;2.17;;
59189;SDS011;50749;51.636;4.948;2022-08-18T04:35:41;2.97;;;2.20;;
59189;SDS011;50749;51.636;4.948;2022-08-18T04:38:08;2.92;;;2.10;;
59189;SDS011;50749;51.636;4.948;2022-08-18T04:40:35;2.83;;;2.47;;
59189;SDS011;50749;51.636;4.948;2022-08-18T04:43:01;3.08;;;2.35;;
59189;SDS011;50749;51.636;4.948;2022-08-18T04:45:27;2.58;;;2.25;;
59189;SDS011;50749;51.636;4.948;2022-08-18T04:47:53;4.20;;;2.33;;
59189;SDS011;50749;51.636;4.948;2022-08-18T04:50:19;2.85;;;2.20;;
59189;SDS011;50749;51.636;4.948;2022-08-18T04:52:46;2.72;;;2.15;;
59189;SDS011;50749;51.636;4.948;2022-08-18T04:55:30;2.97;;;2.08;;
59189;SDS011;50749;51.636;4.948;2022-08-18T04:57:56;2.83;;;2.40;;
59189;SDS011;50749;51.636;4.948;2022-08-18T05:00:23;2.13;;;1.75;;
59189;SDS011;50749;51.636;4.948;2022-08-18T05:02:49;2.35;;;2.13;;
59189;SDS011;50749;51.636;4.948;2022-08-18T05:05:17;2.63;;;2.20;;
59189;SDS011;50749;51.636;4.948;2022-08-18T05:07:43;2.80;;;2.13;;
59189;SDS011;50749;51.636;4.948;2022-08-18T05:10:10;2.30;;;2.00;;
59189;SDS011;50749;51.636;4.948;2022-08-18T05:12:37;2.67;;;2.00;;
59189;SDS011;50749;51.636;4.948;2022-08-18T05:15:05;2.83;;;2.15;;
59189;SDS011;50749;51.636;4.948;2022-08-18T05:17:35;2.83;;;2.38;;
59189;SDS011;50749;51.636;4.948;2022-08-18T05:20:05;3.45;;;2.80;;
59189;SDS011;50749;51.636;4.948;2022-08-18T05:22:36;2.55;;;2.00;;
59189;SDS011;50749;51.636;4.948;2022-08-18T05:25:03;2.80;;;2.10;;
59189;SDS011;50749;51.636;4.948;2022-08-18T05:27:34;2.35;;;1.92;;
59189;SDS011;50749;51.636;4.948;2022-08-18T05:30:01;3.45;;;2.25;;
59189;SDS011;50749;51.636;4.948;2022-08-18T05:32:28;2.40;;;2.13;;
59189;SDS011;50749;51.636;4.948;2022-08-18T05:34:57;3.05;;;2.22;;
59189;SDS011;50749;51.636;4.948;2022-08-18T05:37:27;2.58;;;1.95;;
59189;SDS011;50749;51.636;4.948;2022-08-18T05:40:14;2.90;;;2.25;;
59189;SDS011;50749;51.636;4.948;2022-08-18T05:42:40;2.47;;;2.17;;
59189;SDS011;50749;51.636;4.948;2022-08-18T05:45:11;2.60;;;2.10;;
59189;SDS011;50749;51.636;4.948;2022-08-18T05:47:40;2.40;;;2.00;;
59189;SDS011;50749;51.636;4.948;2022-08-18T05:50:08;2.42;;;1.77;;
59189;SDS011;50749;51.636;4.948;2022-08-18T05:52:42;3.17;;;2.38;;
59189;SDS011;50749;51.636;4.948;2022-08-18T05:55:23;2.20;;;1.73;;
59189;SDS011;50749;51.636;4.948;2022-08-18T06:00:43;2.25;;;1.83;;
59189;SDS011;50749;51.636;4.948;2022-08-18T06:03:22;2.00;;;1.52;;
59189;SDS011;50749;51.636;4.948;2022-08-18T06:05:54;2.50;;;2.20;;
59189;SDS011;50749;51.636;4.948;2022-08-18T06:08:33;3.72;;;1.90;;
59189;SDS011;50749;51.636;4.948;2022-08-18T06:11:04;4.53;;;3.08;;
59189;SDS011;50749;51.636;4.948;2022-08-18T06:13:30;10.07;;;5.15;;
59189;SDS011;50749;51.636;4.948;2022-08-18T06:16:19;9.77;;;6.18;;
59189;SDS011;50749;51.636;4.948;2022-08-18T06:19:18;10.50;;;7.03;;
59189;SDS011;50749;51.636;4.948;2022-08-18T06:25:24;12.48;;;7.20;;
59189;SDS011;50749;51.636;4.948;2022-08-18T06:35:38;9.02;;;6.60;;
59189;SDS011;50749;51.636;4.948;2022-08-18T06:38:55;10.20;;;6.95;;
59189;SDS011;50749;51.636;4.948;2022-08-18T06:43:48;9.82;;;6.50;;
59189;SDS011;50749;51.636;4.948;2022-08-18T06:46:30;15.07;;;7.00;;
59189;SDS011;50749;51.636;4.948;2022-08-18T06:49:02;12.93;;;6.43;;
59189;SDS011;50749;51.636;4.948;2022-08-18T06:51:32;9.35;;;6.50;;
59189;SDS011;50749;51.636;4.948;2022-08-18T06:53:59;10.52;;;6.57;;
59189;SDS011;50749;51.636;4.948;2022-08-18T07:01:58;9.02;;;5.90;;
59189;SDS011;50749;51.636;4.948;2022-08-18T07:04:41;8.38;;;5.43;;
59189;SDS011;50749;51.636;4.948;2022-08-18T07:10:02;7.35;;;5.20;;
59189;SDS011;50749;51.636;4.948;2022-08-18T07:12:30;9.10;;;5.47;;
59189;SDS011;50749;51.636;4.948;2022-08-18T07:15:00;8.10;;;5.10;;
59189;SDS011;50749;51.636;4.948;2022-08-18T07:17:31;8.10;;;5.57;;
59189;SDS011;50749;51.636;4.948;2022-08-18T07:22:26;7.30;;;5.25;;
59189;SDS011;50749;51.636;4.948;2022-08-18T07:24:54;6.88;;;5.15;;
59189;SDS011;50749;51.636;4.948;2022-08-18T07:27:39;7.53;;;5.30;;
59189;SDS011;50749;51.636;4.948;2022-08-18T07:32:44;8.95;;;5.57;;
59189;SDS011;50749;51.636;4.948;2022-08-18T07:35:17;6.78;;;5.70;;
59189;SDS011;50749;51.636;4.948;2022-08-18T07:38:09;8.88;;;5.97;;
59189;SDS011;50749;51.636;4.948;2022-08-18T07:41:29;11.10;;;6.15;;
59189;SDS011;50749;51.636;4.948;2022-08-18T07:46:37;9.85;;;5.53;;
59189;SDS011;50749;51.636;4.948;2022-08-18T07:49:24;12.88;;;6.10;;
59189;SDS011;50749;51.636;4.948;2022-08-18T07:51:56;11.02;;;5.95;;
59189;SDS011;50749;51.636;4.948;2022-08-18T07:57:34;9.45;;;6.00;;
59189;SDS011;50749;51.636;4.948;2022-08-18T08:00:29;11.55;;;5.65;;
59189;SDS011;50749;51.636;4.948;2022-08-18T08:08:50;8.48;;;4.40;;
59189;SDS011;50749;51.636;4.948;2022-08-18T08:11:49;7.85;;;3.00;;
59189;SDS011;50749;51.636;4.948;2022-08-18T08:14:28;5.80;;;2.88;;
59189;SDS011;50749;51.636;4.948;2022-08-18T08:28:02;3.75;;;2.30;;
59189;SDS011;50749;51.636;4.948;2022-08-18T08:30:51;3.78;;;2.30;;
59189;SDS011;50749;51.636;4.948;2022-08-18T08:33:42;3.85;;;2.38;;
59189;SDS011;50749;51.636;4.948;2022-08-18T08:36:22;4.85;;;2.60;;
59189;SDS011;50749;51.636;4.948;2022-08-18T08:38:59;4.15;;;2.17;;
59189;SDS011;50749;51.636;4.948;2022-08-18T08:46:43;4.38;;;1.92;;
59189;SDS011;50749;51.636;4.948;2022-08-18T08:52:29;6.47;;;2.65;;
59189;SDS011;50749;51.636;4.948;2022-08-18T08:54:59;3.92;;;2.85;;
59189;SDS011;50749;51.636;4.948;2022-08-18T08:57:31;4.55;;;2.60;;
59189;SDS011;50749;51.636;4.948;2022-08-18T09:00:06;6.63;;;2.60;;
59189;SDS011;50749;51.636;4.948;2022-08-18T09:05:24;4.55;;;2.85;;
59189;SDS011;50749;51.636;4.948;2022-08-18T09:08:12;4.75;;;3.10;;
59189;SDS011;50749;51.636;4.948;2022-08-18T09:16:51;6.32;;;3.75;;
59189;SDS011;50749;51.636;4.948;2022-08-18T09:24:52;4.43;;;2.72;;
59189;SDS011;50749;51.636;4.948;2022-08-18T09:29:58;3.88;;;2.58;;
59189;SDS011;50749;51.636;4.948;2022-08-18T09:37:18;6.43;;;2.88;;
59189;SDS011;50749;51.636;4.948;2022-08-18T09:39:56;5.05;;;3.10;;
59189;SDS011;50749;51.636;4.948;2022-08-18T09:42:54;4.50;;;3.35;;
59189;SDS011;50749;51.636;4.948;2022-08-18T09:45:54;3.60;;;3.10;;
59189;SDS011;50749;51.636;4.948;2022-08-18T09:48:26;9.60;;;3.58;;
59189;SDS011;50749;51.636;4.948;2022-08-18T10:02:02;6.90;;;3.60;;
59189;SDS011;50749;51.636;4.948;2022-08-18T10:04:34;7.10;;;3.50;;
59189;SDS011;50749;51.636;4.948;2022-08-18T10:07:13;4.63;;;3.38;;
59189;SDS011;50749;51.636;4.948;2022-08-18T10:12:30;6.00;;;3.47;;
59189;SDS011;50749;51.636;4.948;2022-08-18T10:18:12;4.78;;;3.30;;
59189;SDS011;50749;51.636;4.948;2022-08-18T10:31:25;4.75;;;3.40;;
59189;SDS011;50749;51.636;4.948;2022-08-18T10:36:34;5.53;;;3.90;;
59189;SDS011;50749;51.636;4.948;2022-08-18T10:39:17;6.72;;;3.97;;
59189;SDS011;50749;51.636;4.948;2022-08-18T10:45:14;5.63;;;3.90;;
59189;SDS011;50749;51.636;4.948;2022-08-18T10:48:06;4.47;;;3.58;;
59189;SDS011;50749;51.636;4.948;2022-08-18T10:50:40;4.50;;;3.70;;
59189;SDS011;50749;51.636;4.948;2022-08-18T10:56:06;4.28;;;3.47;;
59189;SDS011;50749;51.636;4.948;2022-08-18T10:58:45;4.60;;;3.58;;
59189;SDS011;50749;51.636;4.948;2022-08-18T11:04:30;6.75;;;3.90;;
59189;SDS011;50749;51.636;4.948;2022-08-18T11:09:48;5.35;;;3.97;;
59189;SDS011;50749;51.636;4.948;2022-08-18T11:12:34;9.13;;;3.65;;
59189;SDS011;50749;51.636;4.948;2022-08-18T11:24:14;5.85;;;3.70;;
59189;SDS011;50749;51.636;4.948;2022-08-18T11:26:47;8.68;;;4.10;;
59189;SDS011;50749;51.636;4.948;2022-08-18T11:37:05;5.90;;;4.07;;
59189;SDS011;50749;51.636;4.948;2022-08-18T11:39:40;3.80;;;3.30;;
59189;SDS011;50749;51.636;4.948;2022-08-18T11:42:12;5.55;;;3.90;;
59189;SDS011;50749;51.636;4.948;2022-08-18T11:44:39;6.13;;;3.95;;
59189;SDS011;50749;51.636;4.948;2022-08-18T11:47:11;7.25;;;3.92;;
59189;SDS011;50749;51.636;4.948;2022-08-18T11:55:49;6.07;;;3.72;;
59189;SDS011;50749;51.636;4.948;2022-08-18T11:58:06;5.45;;;3.50;;
59189;SDS011;50749;51.636;4.948;2022-08-18T12:03:24;5.05;;;3.40;;
59189;SDS011;50749;51.636;4.948;2022-08-18T12:05:53;5.15;;;3.88;;
59189;SDS011;50749;51.636;4.948;2022-08-18T12:11:02;5.57;;;3.63;;
59189;SDS011;50749;51.636;4.948;2022-08-18T12:13:38;3.67;;;3.17;;
59189;SDS011;50749;51.636;4.948;2022-08-18T12:16:08;6.03;;;3.60;;
59189;SDS011;50749;51.636;4.948;2022-08-18T12:18:37;8.13;;;3.80;;
59189;SDS011;50749;51.636;4.948;2022-08-18T12:21:02;6.00;;;3.90;;
59189;SDS011;50749;51.636;4.948;2022-08-18T12:23:30;4.78;;;3.50;;
59189;SDS011;50749;51.636;4.948;2022-08-18T12:25:58;5.78;;;3.22;;
59189;SDS011;50749;51.636;4.948;2022-08-18T12:28:24;4.18;;;2.95;;
59189;SDS011;50749;51.636;4.948;2022-08-18T12:30:51;5.72;;;3.17;;
59189;SDS011;50749;51.636;4.948;2022-08-18T12:33:17;5.40;;;3.33;;
59189;SDS011;50749;51.636;4.948;2022-08-18T12:35:43;4.82;;;3.00;;
59189;SDS011;50749;51.636;4.948;2022-08-18T12:38:10;4.47;;;2.80;;
59189;SDS011;50749;51.636;4.948;2022-08-18T12:40:37;5.10;;;3.08;;
59189;SDS011;50749;51.636;4.948;2022-08-18T12:43:04;5.68;;;3.35;;
59189;SDS011;50749;51.636;4.948;2022-08-18T12:45:30;5.03;;;3.10;;
59189;SDS011;50749;51.636;4.948;2022-08-18T12:47:56;4.47;;;3.25;;
59189;SDS011;50749;51.636;4.948;2022-08-18T12:50:23;4.25;;;2.90;;
59189;SDS011;50749;51.636;4.948;2022-08-18T12:52:49;6.10;;;3.13;;
59189;SDS011;50749;51.636;4.948;2022-08-18T12:55:15;4.32;;;3.22;;
59189;SDS011;50749;51.636;4.948;2022-08-18T12:57:42;6.72;;;3.50;;
59189;SDS011;50749;51.636;4.948;2022-08-18T13:00:09;6.70;;;3.13;;
59189;SDS011;50749;51.636;4.948;2022-08-18T13:02:35;4.38;;;2.53;;
59189;SDS011;50749;51.636;4.948;2022-08-18T13:05:00;4.10;;;3.00;;
59189;SDS011;50749;51.636;4.948;2022-08-18T13:07:26;4.05;;;3.08;;
59189;SDS011;50749;51.636;4.948;2022-08-18T13:09:52;3.88;;;2.92;;
59189;SDS011;50749;51.636;4.948;2022-08-18T13:12:18;3.67;;;2.72;;
59189;SDS011;50749;51.636;4.948;2022-08-18T13:14:44;3.70;;;3.22;;
59189;SDS011;50749;51.636;4.948;2022-08-18T13:17:11;5.57;;;3.15;;
59189;SDS011;50749;51.636;4.948;2022-08-18T13:19:37;4.70;;;2.85;;
59189;SDS011;50749;51.636;4.948;2022-08-18T13:22:03;8.85;;;3.35;;
59189;SDS011;50749;51.636;4.948;2022-08-18T13:24:29;5.28;;;3.50;;
59189;SDS011;50749;51.636;4.948;2022-08-18T13:26:55;3.75;;;3.03;;
59189;SDS011;50749;51.636;4.948;2022-08-18T13:29:21;4.22;;;3.33;;
59189;SDS011;50749;51.636;4.948;2022-08-18T13:31:47;5.28;;;3.95;;
59189;SDS011;50749;51.636;4.948;2022-08-18T13:34:13;4.60;;;3.22;;
59189;SDS011;50749;51.636;4.948;2022-08-18T13:36:39;7.25;;;3.00;;
59189;SDS011;50749;51.636;4.948;2022-08-18T13:39:13;4.78;;;2.97;;
59189;SDS011;50749;51.636;4.948;2022-08-18T13:41:41;5.80;;;2.95;;
59189;SDS011;50749;51.636;4.948;2022-08-18T13:44:07;5.00;;;2.75;;
59189;SDS011;50749;51.636;4.948;2022-08-18T13:46:35;3.33;;;2.40;;
59189;SDS011;50749;51.636;4.948;2022-08-18T13:49:11;3.65;;;2.97;;
59189;SDS011;50749;51.636;4.948;2022-08-18T13:51:37;4.28;;;2.78;;
59189;SDS011;50749;51.636;4.948;2022-08-18T13:54:04;3.80;;;3.22;;
59189;SDS011;50749;51.636;4.948;2022-08-18T13:56:30;4.03;;;2.60;;
59189;SDS011;50749;51.636;4.948;2022-08-18T13:58:56;3.40;;;2.80;;
59189;SDS011;50749;51.636;4.948;2022-08-18T14:01:21;5.00;;;2.95;;
59189;SDS011;50749;51.636;4.948;2022-08-18T14:03:47;8.43;;;2.95;;
59189;SDS011;50749;51.636;4.948;2022-08-18T14:06:13;4.68;;;3.35;;
59189;SDS011;50749;51.636;4.948;2022-08-18T14:08:40;5.97;;;3.13;;
59189;SDS011;50749;51.636;4.948;2022-08-18T14:11:06;4.57;;;2.88;;
59189;SDS011;50749;51.636;4.948;2022-08-18T14:13:32;6.25;;;3.60;;
59189;SDS011;50749;51.636;4.948;2022-08-18T14:15:58;4.20;;;3.35;;
59189;SDS011;50749;51.636;4.948;2022-08-18T14:18:25;5.72;;;3.22;;
59189;SDS011;50749;51.636;4.948;2022-08-18T14:20:53;5.00;;;3.65;;
59189;SDS011;50749;51.636;4.948;2022-08-18T14:23:38;5.75;;;3.67;;
59189;SDS011;50749;51.636;4.948;2022-08-18T14:26:30;6.35;;;4.40;;
59189;SDS011;50749;51.636;4.948;2022-08-18T14:29:13;6.60;;;3.38;;
59189;SDS011;50749;51.636;4.948;2022-08-18T14:31:40;4.32;;;3.85;;
59189;SDS011;50749;51.636;4.948;2022-08-18T14:34:06;5.00;;;4.28;;
59189;SDS011;50749;51.636;4.948;2022-08-18T14:36:32;6.95;;;4.13;;
59189;SDS011;50749;51.636;4.948;2022-08-18T14:38:59;9.00;;;4.35;;
59189;SDS011;50749;51.636;4.948;2022-08-18T14:41:25;6.03;;;4.07;;
59189;SDS011;50749;51.636;4.948;2022-08-18T14:43:52;5.88;;;3.33;;
59189;SDS011;50749;51.636;4.948;2022-08-18T14:46:20;6.50;;;4.30;;
59189;SDS011;50749;51.636;4.948;2022-08-18T14:48:47;6.63;;;3.92;;
59189;SDS011;50749;51.636;4.948;2022-08-18T14:51:14;10.73;;;3.95;;
59189;SDS011;50749;51.636;4.948;2022-08-18T14:53:40;5.75;;;4.20;;
59189;SDS011;50749;51.636;4.948;2022-08-18T14:56:06;7.50;;;3.78;;
59189;SDS011;50749;51.636;4.948;2022-08-18T14:58:33;8.40;;;3.70;;
59189;SDS011;50749;51.636;4.948;2022-08-18T15:01:03;8.23;;;4.35;;
59189;SDS011;50749;51.636;4.948;2022-08-18T15:03:32;8.07;;;4.85;;
59189;SDS011;50749;51.636;4.948;2022-08-18T15:06:01;10.32;;;4.90;;
59189;SDS011;50749;51.636;4.948;2022-08-18T15:08:28;12.02;;;5.10;;
59189;SDS011;50749;51.636;4.948;2022-08-18T15:10:55;5.70;;;4.53;;
59189;SDS011;50749;51.636;4.948;2022-08-18T15:13:22;7.43;;;5.15;;
59189;SDS011;50749;51.636;4.948;2022-08-18T15:15:49;5.22;;;4.32;;
59189;SDS011;50749;51.636;4.948;2022-08-18T15:18:15;6.10;;;4.28;;
59189;SDS011;50749;51.636;4.948;2022-08-18T15:20:43;7.35;;;4.63;;
59189;SDS011;50749;51.636;4.948;2022-08-18T15:23:28;9.70;;;4.55;;
59189;SDS011;50749;51.636;4.948;2022-08-18T15:26:16;6.40;;;4.53;;
59189;SDS011;50749;51.636;4.948;2022-08-18T15:28:46;8.02;;;4.68;;
59189;SDS011;50749;51.636;4.948;2022-08-18T15:31:12;5.75;;;3.92;;
59189;SDS011;50749;51.636;4.948;2022-08-18T15:33:37;13.98;;;3.80;;
59189;SDS011;50749;51.636;4.948;2022-08-18T15:36:03;5.40;;;3.97;;
59189;SDS011;50749;51.636;4.948;2022-08-18T15:38:29;6.22;;;3.53;;
59189;SDS011;50749;51.636;4.948;2022-08-18T15:40:56;5.40;;;3.70;;
59189;SDS011;50749;51.636;4.948;2022-08-18T15:43:24;7.78;;;3.45;;
59189;SDS011;50749;51.636;4.948;2022-08-18T15:45:51;9.73;;;3.33;;
59189;SDS011;50749;51.636;4.948;2022-08-18T15:48:19;5.30;;;3.78;;
59189;SDS011;50749;51.636;4.948;2022-08-18T15:50:47;4.88;;;3.53;;
59189;SDS011;50749;51.636;4.948;2022-08-18T15:53:15;4.55;;;3.13;;
59189;SDS011;50749;51.636;4.948;2022-08-18T15:55:43;4.53;;;3.33;;
59189;SDS011;50749;51.636;4.948;2022-08-18T15:58:10;4.47;;;3.25;;
59189;SDS011;50749;51.636;4.948;2022-08-18T16:00:38;4.45;;;2.88;;
59189;SDS011;50749;51.636;4.948;2022-08-18T16:03:07;4.22;;;3.15;;
59189;SDS011;50749;51.636;4.948;2022-08-18T16:05:38;4.95;;;3.08;;
59189;SDS011;50749;51.636;4.948;2022-08-18T16:08:06;6.38;;;2.95;;
59189;SDS011;50749;51.636;4.948;2022-08-18T16:10:35;3.25;;;2.88;;
59189;SDS011;50749;51.636;4.948;2022-08-18T16:13:02;3.80;;;3.20;;
59189;SDS011;50749;51.636;4.948;2022-08-18T16:15:29;3.92;;;3.17;;
59189;SDS011;50749;51.636;4.948;2022-08-18T16:17:59;4.47;;;3.03;;
59189;SDS011;50749;51.636;4.948;2022-08-18T16:20:25;3.65;;;3.00;;
59189;SDS011;50749;51.636;4.948;2022-08-18T16:22:53;4.70;;;4.03;;
59189;SDS011;50749;51.636;4.948;2022-08-18T16:25:22;3.90;;;2.97;;
59189;SDS011;50749;51.636;4.948;2022-08-18T16:27:49;4.35;;;3.00;;
59189;SDS011;50749;51.636;4.948;2022-08-18T16:30:18;3.92;;;3.30;;
59189;SDS011;50749;51.636;4.948;2022-08-18T16:32:47;5.38;;;3.10;;
59189;SDS011;50749;51.636;4.948;2022-08-18T16:35:14;4.00;;;3.25;;
59189;SDS011;50749;51.636;4.948;2022-08-18T16:37:41;3.78;;;3.38;;
59189;SDS011;50749;51.636;4.948;2022-08-18T16:40:08;4.00;;;3.03;;
59189;SDS011;50749;51.636;4.948;2022-08-18T16:42:34;4.88;;;2.95;;
59189;SDS011;50749;51.636;4.948;2022-08-18T16:45:00;4.05;;;2.85;;
59189;SDS011;50749;51.636;4.948;2022-08-18T16:47:30;3.67;;;2.70;;
59189;SDS011;50749;51.636;4.948;2022-08-18T16:49:56;4.43;;;3.10;;
59189;SDS011;50749;51.636;4.948;2022-08-18T16:52:22;4.38;;;3.00;;
59189;SDS011;50749;51.636;4.948;2022-08-18T16:54:48;5.28;;;3.15;;
59189;SDS011;50749;51.636;4.948;2022-08-18T16:57:14;5.10;;;3.10;;
59189;SDS011;50749;51.636;4.948;2022-08-18T17:00:03;4.55;;;3.08;;
59189;SDS011;50749;51.636;4.948;2022-08-18T17:02:49;3.67;;;2.80;;
59189;SDS011;50749;51.636;4.948;2022-08-18T17:05:33;4.35;;;2.88;;
59189;SDS011;50749;51.636;4.948;2022-08-18T17:07:59;5.00;;;3.13;;
59189;SDS011;50749;51.636;4.948;2022-08-18T17:10:25;3.80;;;2.65;;
59189;SDS011;50749;51.636;4.948;2022-08-18T17:12:51;3.50;;;2.53;;
59189;SDS011;50749;51.636;4.948;2022-08-18T17:15:16;3.40;;;2.80;;
59189;SDS011;50749;51.636;4.948;2022-08-18T17:17:42;2.92;;;2.50;;
59189;SDS011;50749;51.636;4.948;2022-08-18T17:20:09;3.42;;;2.67;;
59189;SDS011;50749;51.636;4.948;2022-08-18T17:22:35;3.80;;;2.88;;
59189;SDS011;50749;51.636;4.948;2022-08-18T17:25:01;3.42;;;2.80;;
59189;SDS011;50749;51.636;4.948;2022-08-18T17:27:30;3.15;;;2.65;;
59189;SDS011;50749;51.636;4.948;2022-08-18T17:30:03;3.42;;;3.00;;
59189;SDS011;50749;51.636;4.948;2022-08-18T17:32:40;3.05;;;2.60;;
59189;SDS011;50749;51.636;4.948;2022-08-18T17:35:12;3.00;;;2.38;;
59189;SDS011;50749;51.636;4.948;2022-08-18T17:37:44;3.45;;;2.67;;
59189;SDS011;50749;51.636;4.948;2022-08-18T17:40:27;2.42;;;2.20;;
59189;SDS011;50749;51.636;4.948;2022-08-18T17:42:55;4.63;;;2.42;;